Time;durP1;ratioP1;P1;durP2;ratioP2;P2;SDS_P1;SDS_P2;PMS_P1;PMS_P2;Temp;Humidity;BMP_temperature;BMP_pressure;BME280_temperature;BME280_humidity;BME280_pressure;Samples;Min_cycle;Max_cycle;Signal;HPM_P1;HPM_P2
2022/09/02 00:00:58;;;;;;;15.02;9.77;;;;;;;16.09;100.00;90741.19;5073329;28;20028;-65
2022/09/02 00:03:24;;;;;;;14.30;9.85;;;;;;;16.16;100.00;90744.06;5073450;28;20027;-65
2022/09/02 00:05:49;;;;;;;13.77;9.30;;;;;;;16.17;100.00;90742.91;5073152;28;20045;-65
2022/09/02 00:08:15;;;;;;;14.93;9.63;;;;;;;16.15;100.00;90740.59;5073357;28;20035;-65
2022/09/02 00:10:44;;;;;;;13.40;9.38;;;;;;;16.11;100.00;90744.31;5073077;28;20029;-65
2022/09/02 00:13:12;;;;;;;17.33;9.77;;;;;;;15.98;100.00;90732.88;5073507;28;20025;-65
2022/09/02 00:15:38;;;;;;;14.40;9.45;;;;;;;15.94;100.00;90733.91;5072282;28;20036;-65
2022/09/02 00:18:05;;;;;;;11.35;8.85;;;;;;;15.86;100.00;90738.31;5072966;28;20021;-64
2022/09/02 00:20:31;;;;;;;16.45;10.02;;;;;;;15.84;100.00;90745.94;5073540;28;20068;-64
2022/09/02 00:22:57;;;;;;;15.13;8.88;;;;;;;15.90;100.00;90759.88;5073180;28;20471;-64
2022/09/02 00:25:22;;;;;;;17.13;10.80;;;;;;;15.95;100.00;90749.69;5073171;28;20025;-64
2022/09/02 00:27:48;;;;;;;15.68;9.63;;;;;;;15.88;100.00;90757.53;5073284;28;20048;-64
2022/09/02 00:30:14;;;;;;;17.85;9.57;;;;;;;15.85;100.00;90758.22;5073096;28;20039;-64
2022/09/02 00:32:40;;;;;;;15.75;10.55;;;;;;;15.90;100.00;90765.22;5073213;28;20032;-65
2022/09/02 00:35:06;;;;;;;17.38;10.88;;;;;;;16.01;100.00;90771.66;5073080;28;20025;-64
2022/09/02 00:37:32;;;;;;;17.33;10.45;;;;;;;16.07;100.00;90786.38;5073279;28;20029;-65
2022/09/02 00:39:58;;;;;;;18.63;12.23;;;;;;;16.23;100.00;90779.09;5072952;28;20116;-65
2022/09/02 00:42:25;;;;;;;19.05;10.77;;;;;;;16.24;100.00;90783.34;5072810;28;20032;-64
2022/09/02 00:44:51;;;;;;;22.00;13.77;;;;;;;16.39;100.00;90787.16;5072919;28;20107;-65
2022/09/02 00:47:17;;;;;;;20.45;13.65;;;;;;;16.43;100.00;90790.72;5072722;28;20036;-65
2022/09/02 00:49:47;;;;;;;24.35;13.95;;;;;;;16.49;100.00;90792.00;5072753;28;20036;-65
2022/09/02 00:52:31;;;;;;;20.65;12.93;;;;;;;16.60;100.00;90792.28;5072512;28;20028;-65
2022/09/02 00:54:58;;;;;;;18.60;12.23;;;;;;;16.62;100.00;90795.41;5072649;28;20107;-65
2022/09/02 00:57:29;;;;;;;17.55;11.52;;;;;;;16.70;100.00;90797.91;5072593;28;20548;-65
2022/09/02 01:00:03;;;;;;;18.35;11.00;;;;;;;16.60;100.00;90792.28;5072585;28;20032;-65
2022/09/02 01:02:30;;;;;;;17.25;10.80;;;;;;;16.48;100.00;90793.91;5072374;28;20103;-65
2022/09/02 01:04:58;;;;;;;15.77;8.98;;;;;;;16.47;100.00;90802.31;5072461;28;20104;-65
2022/09/02 01:07:27;;;;;;;10.45;7.07;;;;;;;16.28;100.00;90791.50;5072324;28;20021;-64
2022/09/02 01:09:55;;;;;;;13.50;8.35;;;;;;;16.21;100.00;90792.09;5072382;28;20033;-64
2022/09/02 01:12:21;;;;;;;12.10;8.43;;;;;;;16.21;100.00;90781.34;5072184;28;20040;-65
2022/09/02 01:14:47;;;;;;;11.93;8.77;;;;;;;16.30;100.00;90789.25;5072244;28;20181;-65
2022/09/02 01:17:17;;;;;;;16.70;9.45;;;;;;;16.35;100.00;90779.03;5072169;28;20115;-65
2022/09/02 01:19:48;;;;;;;14.00;9.15;;;;;;;16.30;100.00;90779.28;5072417;28;20111;-65
2022/09/02 01:22:26;;;;;;;11.45;8.25;;;;;;;16.26;100.00;90775.75;5071985;28;20553;-65
2022/09/02 01:24:55;;;;;;;13.82;8.95;;;;;;;16.19;100.00;90775.56;5072063;28;20037;-65
2022/09/02 01:27:22;;;;;;;14.85;10.00;;;;;;;16.18;100.00;90766.72;5071549;28;20028;-65
2022/09/02 01:29:52;;;;;;;16.77;9.68;;;;;;;16.37;100.00;90776.00;5071932;28;20486;-65
2022/09/02 01:32:18;;;;;;;14.15;9.32;;;;;;;16.36;100.00;90777.91;5071779;28;20037;-65
2022/09/02 01:34:43;;;;;;;12.68;8.80;;;;;;;16.46;100.00;90771.22;5072142;28;20032;-65
2022/09/02 01:37:09;;;;;;;16.10;8.68;;;;;;;16.54;100.00;90772.16;5071780;28;20541;-65
2022/09/02 01:39:35;;;;;;;13.05;8.25;;;;;;;16.61;100.00;90764.28;5071802;28;20546;-65
2022/09/02 01:42:01;;;;;;;12.07;8.23;;;;;;;16.59;100.00;90758.50;5071678;28;20575;-65
2022/09/02 01:44:27;;;;;;;11.80;8.10;;;;;;;16.63;100.00;90754.75;5071659;28;20028;-65
2022/09/02 01:46:53;;;;;;;14.00;9.52;;;;;;;16.70;100.00;90748.78;5071577;28;20108;-65
2022/09/02 01:49:19;;;;;;;12.45;8.80;;;;;;;16.60;100.00;90750.09;5071640;28;20032;-65
2022/09/02 01:51:45;;;;;;;13.93;8.88;;;;;;;16.62;100.00;90747.03;5071598;28;20033;-65
2022/09/02 01:54:10;;;;;;;15.18;9.40;;;;;;;16.59;100.00;90748.53;5071457;28;20540;-65
2022/09/02 01:56:37;;;;;;;17.13;10.30;;;;;;;16.58;100.00;90746.97;5071489;28;20021;-65
2022/09/02 01:59:03;;;;;;;13.75;10.02;;;;;;;16.74;100.00;90749.66;5071499;28;20032;-64
2022/09/02 02:01:28;;;;;;;16.23;10.77;;;;;;;16.85;100.00;90747.97;5071457;28;20025;-65
2022/09/02 02:03:54;;;;;;;16.45;10.07;;;;;;;16.73;100.00;90737.38;5071562;28;20114;-65
2022/09/02 02:06:20;;;;;;;17.98;10.63;;;;;;;16.79;100.00;90737.84;5053939;28;20051;-64
2022/09/02 02:08:46;;;;;;;16.73;9.65;;;;;;;16.77;100.00;90740.91;5051421;28;20035;-65
2022/09/02 02:11:19;;;;;;;18.35;9.55;;;;;;;16.72;100.00;90741.16;5051314;28;20483;-65
2022/09/02 02:13:44;;;;;;;15.10;10.70;;;;;;;16.67;100.00;90739.53;5051432;28;20028;-65
2022/09/02 02:16:09;;;;;;;16.05;8.90;;;;;;;16.74;100.00;90742.38;5051207;28;20448;-64
2022/09/02 02:18:36;;;;;;;15.82;8.13;;;;;;;16.74;100.00;90739.69;5051198;28;20086;-64
2022/09/02 02:21:01;;;;;;;17.55;9.73;;;;;;;16.68;100.00;90735.69;5051429;28;20029;-64
2022/09/02 02:23:27;;;;;;;13.43;9.50;;;;;;;16.62;100.00;90739.78;5051150;28;20043;-65
2022/09/02 02:25:52;;;;;;;14.95;9.35;;;;;;;16.57;100.00;90725.81;5051089;28;20047;-64
2022/09/02 02:28:18;;;;;;;13.65;9.07;;;;;;;16.57;100.00;90729.31;5051073;28;20501;-64
2022/09/02 02:33:18;;;;;;;15.05;10.15;;;;;;;16.46;100.00;90730.97;5081279;22;20065;-65
2022/09/02 02:35:44;;;;;;;16.83;9.30;;;;;;;16.52;100.00;90734.16;5051088;28;20031;-65
2022/09/02 02:38:09;;;;;;;16.02;8.95;;;;;;;16.51;100.00;90729.91;5050958;28;20056;-65
2022/09/02 02:40:35;;;;;;;10.85;7.05;;;;;;;16.55;100.00;90738.81;5054213;28;20029;-65
2022/09/02 02:43:01;;;;;;;9.52;6.03;;;;;;;16.57;100.00;90723.94;5055231;28;20409;-65
2022/09/02 02:45:26;;;;;;;9.40;6.30;;;;;;;16.58;100.00;90730.09;5055098;28;20479;-65
2022/09/02 02:47:52;;;;;;;9.05;6.28;;;;;;;16.59;100.00;90731.63;5055006;28;20036;-65
2022/09/02 02:50:19;;;;;;;12.20;7.20;;;;;;;16.44;100.00;90722.47;5055001;28;20123;-65
2022/09/02 02:52:45;;;;;;;10.95;6.78;;;;;;;16.35;100.00;90716.50;5054847;28;20063;-65
2022/09/02 02:55:12;;;;;;;9.52;6.65;;;;;;;16.31;100.00;90721.78;5054850;28;20542;-65
2022/09/02 02:57:39;;;;;;;8.38;5.88;;;;;;;16.29;100.00;90718.69;5054700;28;20060;-65
2022/09/02 03:00:14;;;;;;;12.00;9.82;;;;;;;16.28;100.00;90725.19;5054767;28;20394;-65
2022/09/02 03:02:39;;;;;;;10.20;6.78;;;;;;;16.16;100.00;90719.91;5054578;28;20024;-65
2022/09/02 03:05:06;;;;;;;7.68;5.72;;;;;;;16.12;100.00;90716.34;5054655;28;20505;-65
2022/09/02 03:07:32;;;;;;;7.78;5.30;;;;;;;16.06;100.00;90709.69;5054610;28;20039;-65
2022/09/02 03:09:57;;;;;;;8.57;6.28;;;;;;;16.03;100.00;90713.06;5054700;28;20476;-65
2022/09/02 03:12:24;;;;;;;8.77;5.60;;;;;;;16.07;100.00;90708.53;5054396;28;20107;-65
2022/09/02 03:14:50;;;;;;;12.07;7.13;;;;;;;16.07;100.00;90717.38;5054107;28;20590;-66
2022/09/02 03:17:16;;;;;;;13.15;7.32;;;;;;;16.09;100.00;90708.97;5054685;28;20033;-65
2022/09/02 03:19:42;;;;;;;14.55;8.63;;;;;;;16.09;100.00;90714.34;5054450;28;20079;-66
2022/09/02 03:22:09;;;;;;;14.80;9.00;;;;;;;16.10;100.00;90713.25;5054347;28;20036;-65
2022/09/02 03:24:36;;;;;;;15.35;9.38;;;;;;;16.18;100.00;90714.97;5054268;28;20491;-65
2022/09/02 03:27:02;;;;;;;14.65;9.60;;;;;;;16.17;100.00;90719.53;5054287;28;20406;-66
2022/09/02 03:29:28;;;;;;;18.50;9.57;;;;;;;16.20;100.00;90720.75;5054270;28;20044;-65
2022/09/02 03:31:53;;;;;;;17.60;9.35;;;;;;;16.22;100.00;90715.81;5053949;28;20111;-65
2022/09/02 03:34:18;;;;;;;14.27;9.48;;;;;;;16.16;100.00;90720.69;5054353;28;20037;-66
2022/09/02 03:36:44;;;;;;;12.32;8.35;;;;;;;16.00;100.00;90716.44;5054366;28;20079;-66
2022/09/02 03:39:11;;;;;;;13.63;8.82;;;;;;;15.90;100.00;90716.94;5054264;28;20040;-65
2022/09/02 03:41:40;;;;;;;12.23;8.60;;;;;;;15.82;100.00;90719.47;5053852;28;20039;-65
2022/09/02 03:44:06;;;;;;;14.77;9.05;;;;;;;15.77;100.00;90729.66;5054285;28;20033;-65
2022/09/02 03:46:32;;;;;;;11.35;8.20;;;;;;;15.68;100.00;90727.16;5053779;28;20397;-65
2022/09/02 03:48:57;;;;;;;38.28;22.88;;;;;;;15.69;100.00;90726.03;5053642;28;20104;-65
2022/09/02 03:51:25;;;;;;;15.48;9.98;;;;;;;15.66;100.00;90729.41;5053242;28;20056;-65
2022/09/02 03:53:50;;;;;;;14.25;9.30;;;;;;;15.63;100.00;90722.03;5053760;28;20108;-65
2022/09/02 03:56:17;;;;;;;13.68;9.05;;;;;;;15.68;100.00;90726.38;5053745;28;20132;-65
2022/09/02 03:58:44;;;;;;;25.05;14.63;;;;;;;15.77;100.00;90740.38;5053630;28;20033;-65
2022/09/02 04:01:18;;;;;;;16.17;9.63;;;;;;;15.75;100.00;90737.25;5053715;28;20148;-66
2022/09/02 04:03:44;;;;;;;17.40;9.65;;;;;;;15.79;100.00;90733.56;5035684;28;20457;-66
2022/09/02 04:06:11;;;;;;;16.17;10.20;;;;;;;15.85;100.00;90736.75;5053486;28;20029;-67
2022/09/02 04:08:38;;;;;;;17.17;11.73;;;;;;;15.87;100.00;90729.16;5053786;28;20067;-65
2022/09/02 04:11:09;;;;;;;16.83;10.00;;;;;;;15.90;100.00;90730.34;5053353;28;20041;-64
2022/09/02 04:13:35;;;;;;;16.90;11.00;;;;;;;15.99;100.00;90739.81;5053607;28;20128;-65
2022/09/02 04:16:09;;;;;;;17.85;10.32;;;;;;;16.08;100.00;90745.00;5053325;28;20021;-64
2022/09/02 04:18:35;;;;;;;17.02;10.18;;;;;;;16.05;100.00;90751.81;5053652;28;20102;-65
2022/09/02 04:21:02;;;;;;;16.20;10.63;;;;;;;16.12;100.00;90749.34;5053352;28;20041;-64
2022/09/02 04:23:27;;;;;;;16.33;10.13;;;;;;;16.18;100.00;90749.84;5053262;28;20033;-64
2022/09/02 04:25:53;;;;;;;14.95;9.15;;;;;;;16.16;100.00;90746.75;5053164;28;20387;-64
2022/09/02 04:28:19;;;;;;;14.23;9.75;;;;;;;16.21;100.00;90751.06;5053157;28;20029;-64
2022/09/02 04:30:45;;;;;;;14.55;9.10;;;;;;;16.22;100.00;90756.06;5053220;28;20068;-66
2022/09/02 04:33:11;;;;;;;15.38;9.63;;;;;;;16.23;100.00;90757.63;5052908;28;20065;-65
2022/09/02 04:35:41;;;;;;;18.15;10.60;;;;;;;16.30;100.00;90773.94;5053331;28;20033;-65
2022/09/02 04:38:06;;;;;;;14.73;9.27;;;;;;;16.34;100.00;90769.41;5053071;28;20033;-64
2022/09/02 04:40:32;;;;;;;14.00;9.48;;;;;;;16.34;100.00;90774.00;5052920;28;20558;-64
2022/09/02 04:42:58;;;;;;;16.70;10.68;;;;;;;16.30;100.00;90778.50;5052712;28;20025;-64
2022/09/02 04:45:24;;;;;;;16.25;10.20;;;;;;;16.26;100.00;90775.75;5053084;28;20033;-64
2022/09/02 04:47:49;;;;;;;15.52;9.90;;;;;;;16.24;100.00;90777.97;5053069;28;20508;-64
2022/09/02 04:50:15;;;;;;;14.52;9.50;;;;;;;16.26;100.00;90777.66;5052790;28;20091;-64
2022/09/02 04:52:41;;;;;;;13.65;8.88;;;;;;;16.31;100.00;90786.22;5052646;28;20033;-65
2022/09/02 04:55:07;;;;;;;19.40;10.55;;;;;;;16.34;100.00;90785.53;5052639;28;20096;-65
2022/09/02 04:57:33;;;;;;;13.85;9.13;;;;;;;16.36;100.00;90790.53;5052871;28;20017;-64
2022/09/02 05:00:00;;;;;;;13.30;9.10;;;;;;;16.43;100.00;90783.47;5052838;28;20422;-64
2022/09/02 05:02:25;;;;;;;15.73;9.10;;;;;;;16.55;100.00;90797.91;5051583;28;20033;-64
2022/09/02 05:04:51;;;;;;;14.50;8.88;;;;;;;16.42;100.00;90792.63;5052486;28;20033;-64
2022/09/02 05:07:16;;;;;;;16.02;9.68;;;;;;;16.46;100.00;90787.34;5052314;28;20486;-65
2022/09/02 05:09:43;;;;;;;13.88;9.55;;;;;;;16.53;100.00;90782.13;5052596;28;20042;-65
2022/09/02 05:12:09;;;;;;;12.32;8.45;;;;;;;16.70;100.00;90783.69;5052536;28;20029;-64
2022/09/02 05:14:35;;;;;;;16.35;10.25;;;;;;;16.80;100.00;90799.28;5052329;28;20068;-64
2022/09/02 05:17:01;;;;;;;16.52;10.38;;;;;;;16.74;100.00;90787.28;5052200;28;20028;-65
2022/09/02 05:19:26;;;;;;;19.00;9.82;;;;;;;16.77;100.00;90791.94;5052185;28;20068;-65
2022/09/02 05:21:54;;;;;;;13.73;9.60;;;;;;;16.72;100.00;90790.28;5052279;28;20029;-65
2022/09/02 05:24:19;;;;;;;15.77;9.20;;;;;;;16.83;100.00;90789.75;5052350;28;20395;-64
2022/09/02 05:26:45;;;;;;;12.88;9.15;;;;;;;16.99;100.00;90787.81;5052014;28;20036;-64
2022/09/02 05:29:12;;;;;;;15.82;9.18;;;;;;;17.10;100.00;90771.94;5052250;28;20086;-64
2022/09/02 05:31:40;;;;;;;13.85;8.73;;;;;;;17.28;100.00;90773.84;5051749;28;20498;-65
2022/09/02 05:34:06;;;;;;;14.55;8.82;;;;;;;17.42;100.00;90773.38;5051890;28;20037;-64
2022/09/02 05:36:32;;;;;;;14.63;9.00;;;;;;;17.58;100.00;90771.38;5052098;28;20090;-65
2022/09/02 05:38:58;;;;;;;18.00;9.93;;;;;;;17.64;100.00;90767.28;5051779;28;20538;-64
2022/09/02 05:41:26;;;;;;;13.88;9.13;;;;;;;17.78;100.00;90764.09;5051734;28;20079;-65
2022/09/02 05:43:54;;;;;;;13.80;8.57;;;;;;;17.95;100.00;90770.94;5052010;28;20051;-65
2022/09/02 05:46:22;;;;;;;11.85;8.02;;;;;;;17.99;100.00;90768.31;5051592;28;20025;-65
2022/09/02 05:51:36;;;;;;;12.40;8.60;;;;;;;18.12;100.00;90765.09;5051513;28;20032;-65
2022/09/02 05:54:01;;;;;;;12.80;7.57;;;;;;;18.27;100.00;90766.91;5051776;28;20060;-65
2022/09/02 05:56:27;;;;;;;14.07;7.57;;;;;;;18.39;100.00;90754.41;5051596;28;20071;-65
2022/09/02 05:58:56;;;;;;;13.88;8.18;;;;;;;18.43;100.00;90760.63;5051463;28;20498;-65
2022/09/02 06:01:21;;;;;;;14.27;9.13;;;;;;;18.35;100.00;90764.34;5051588;28;20029;-65
2022/09/02 06:03:47;;;;;;;11.77;8.13;;;;;;;18.11;100.00;90771.63;5051406;28;20044;-65
2022/09/02 06:06:13;;;;;;;13.90;8.88;;;;;;;18.00;100.00;90770.69;5051235;28;20040;-65
2022/09/02 06:08:39;;;;;;;14.50;9.13;;;;;;;17.88;100.00;90768.16;5050145;28;20493;-64
2022/09/02 06:11:08;;;;;;;19.02;9.63;;;;;;;17.80;100.00;90761.84;5051327;28;20064;-65
2022/09/02 06:13:36;;;;;;;21.02;10.38;;;;;;;17.62;100.00;90766.84;5051303;28;20033;-65
2022/09/02 06:16:02;;;;;;;14.55;9.93;;;;;;;17.56;100.00;90759.44;5051141;28;20128;-65
2022/09/02 06:18:28;;;;;;;19.50;10.93;;;;;;;17.67;100.00;90771.97;5051062;28;20032;-65
2022/09/02 06:20:53;;;;;;;16.40;9.65;;;;;;;17.69;100.00;90765.47;5051056;28;20108;-66
2022/09/02 06:23:19;;;;;;;14.18;9.73;;;;;;;17.77;100.00;90769.84;5051136;28;20108;-65
2022/09/02 06:25:46;;;;;;;16.92;9.75;;;;;;;17.59;100.00;90772.16;5051072;28;20029;-65
2022/09/02 06:28:13;;;;;;;13.98;8.43;;;;;;;17.60;100.00;90777.19;5050949;28;20035;-65
2022/09/02 06:30:41;;;;;;;15.35;9.70;;;;;;;17.51;100.00;90782.00;5050974;28;20095;-65
2022/09/02 06:33:06;;;;;;;19.98;11.32;;;;;;;17.58;100.00;90779.47;5050943;28;20437;-65
2022/09/02 06:35:38;;;;;;;21.77;11.68;;;;;;;17.62;100.00;90782.22;5051060;28;20020;-65
2022/09/02 06:38:04;;;;;;;20.27;11.30;;;;;;;17.69;100.00;90768.16;5050871;28;20033;-64
2022/09/02 06:40:30;;;;;;;22.88;11.77;;;;;;;17.75;100.00;90785.56;5050947;28;20029;-64
2022/09/02 06:42:56;;;;;;;19.58;10.73;;;;;;;17.78;100.00;90790.25;5050827;28;20025;-65
2022/09/02 06:45:24;;;;;;;18.60;10.82;;;;;;;17.71;100.00;90790.13;5050866;28;20032;-65
2022/09/02 06:47:52;;;;;;;15.90;10.40;;;;;;;17.66;100.00;90799.97;5050919;28;20037;-65
2022/09/02 06:50:18;;;;;;;14.68;8.85;;;;;;;18.00;100.00;90807.59;5050940;28;20494;-65
2022/09/02 06:52:44;;;;;;;13.85;8.45;;;;;;;18.25;100.00;90806.09;5050918;28;20452;-65
2022/09/02 06:55:10;;;;;;;16.27;8.10;;;;;;;18.40;100.00;90799.06;5050853;28;20482;-65
2022/09/02 06:57:37;;;;;;;12.85;8.25;;;;;;;18.38;100.00;90795.94;5050889;28;20045;-65
2022/09/02 07:00:07;;;;;;;12.35;7.82;;;;;;;18.13;100.00;90801.66;5050762;28;20017;-65
2022/09/02 07:02:33;;;;;;;12.60;7.70;;;;;;;18.03;100.00;90801.47;5050609;28;20033;-65
2022/09/02 07:05:14;;;;;;;12.30;7.13;;;;;;;18.05;100.00;90802.69;5050702;28;20036;-65
2022/09/02 07:07:42;;;;;;;13.60;7.43;;;;;;;18.03;100.00;90804.19;5050644;28;20037;-65
2022/09/02 07:10:11;;;;;;;13.15;8.32;;;;;;;18.16;100.00;90806.34;5050669;28;20083;-65
2022/09/02 07:12:38;;;;;;;11.55;7.40;;;;;;;18.31;100.00;90810.06;5050627;28;20032;-65
2022/09/02 07:15:04;;;;;;;13.00;7.95;;;;;;;18.40;100.00;90815.22;5050572;28;20031;-65
2022/09/02 07:17:30;;;;;;;13.80;7.35;;;;;;;18.37;100.00;90810.56;5050560;28;20494;-64
2022/09/02 07:19:58;;;;;;;10.90;6.80;;;;;;;18.52;100.00;90812.34;5032722;28;20052;-65
2022/09/02 07:22:25;;;;;;;8.77;6.25;;;;;;;18.50;100.00;90815.41;5033062;28;20025;-65
2022/09/02 07:24:50;;;;;;;10.82;7.15;;;;;;;18.65;100.00;90811.06;5050559;28;20035;-64
2022/09/02 07:27:19;;;;;;;10.82;6.85;;;;;;;18.88;100.00;90818.34;5056953;28;20033;-65
2022/09/02 07:29:47;;;;;;;11.05;6.82;;;;;;;18.98;100.00;90820.44;5054516;28;20059;-65
2022/09/02 07:32:14;;;;;;;10.02;6.80;;;;;;;19.05;100.00;90812.44;5053951;28;20132;-65
2022/09/02 07:34:40;;;;;;;13.88;9.50;;;;;;;19.12;100.00;90817.94;5054085;28;20056;-65
2022/09/02 07:37:06;;;;;;;13.70;8.70;;;;;;;19.00;100.00;90826.25;5054157;28;20475;-65
2022/09/02 07:39:31;;;;;;;9.77;7.32;;;;;;;18.91;100.00;90823.00;5054104;28;20032;-65
2022/09/02 07:41:57;;;;;;;13.23;8.88;;;;;;;18.73;100.00;90828.88;5053957;28;20024;-65
2022/09/02 07:44:23;;;;;;;11.07;7.82;;;;;;;18.79;100.00;90821.28;5054263;28;20449;-65
2022/09/02 07:46:49;;;;;;;18.98;7.82;;;;;;;18.88;100.00;90835.28;5035950;28;20028;-65
2022/09/02 07:49:16;;;;;;;11.25;7.93;;;;;;;18.91;100.00;90831.09;5053893;28;20411;-65
2022/09/02 07:51:47;;;;;;;12.80;8.60;;;;;;;18.83;100.00;90833.69;5053934;28;20410;-65
2022/09/02 07:54:14;;;;;;;12.20;7.20;;;;;;;18.90;100.00;90843.00;5053785;28;20379;-65
2022/09/02 07:56:39;;;;;;;12.70;8.27;;;;;;;18.88;100.00;90851.47;5053666;28;20546;-65
2022/09/02 07:59:05;;;;;;;19.75;7.55;;;;;;;18.81;100.00;90854.06;5053745;28;20033;-65
2022/09/02 08:01:30;;;;;;;12.48;7.90;;;;;;;18.78;100.00;90850.16;5053638;28;20033;-66
2022/09/02 08:03:56;;;;;;;12.73;7.88;;;;;;;18.82;100.00;90852.91;5053663;28;20449;-65
2022/09/02 08:06:26;;;;;;;13.13;7.13;;;;;;;18.77;100.00;90855.88;5053576;28;20033;-65
2022/09/02 08:08:53;;;;;;;11.40;7.20;;;;;;;18.75;100.00;90852.78;5053741;28;20035;-65
2022/09/02 08:11:19;;;;;;;10.70;7.47;;;;;;;18.67;100.00;90851.91;5053333;28;20029;-65
2022/09/02 08:13:45;;;;;;;11.88;7.20;;;;;;;18.66;100.00;90853.03;5053496;28;20029;-64
2022/09/02 08:16:10;;;;;;;8.80;6.25;;;;;;;18.63;100.00;90853.75;5053381;28;20036;-65
2022/09/02 08:18:36;;;;;;;10.80;6.38;;;;;;;18.74;100.00;90854.69;5053428;28;20025;-65
2022/09/02 08:21:02;;;;;;;9.35;6.10;;;;;;;18.80;100.00;90852.50;5053166;28;20087;-65
2022/09/02 08:23:28;;;;;;;12.23;7.50;;;;;;;18.89;100.00;90846.84;5035481;28;20486;-64
2022/09/02 08:25:53;;;;;;;10.93;6.82;;;;;;;19.17;100.00;90841.13;5053155;28;20028;-65
2022/09/02 08:28:19;;;;;;;9.32;5.95;;;;;;;19.37;100.00;90835.25;5053227;28;20565;-65
2022/09/02 08:30:44;;;;;;;8.73;6.00;;;;;;;19.32;100.00;90838.28;5053038;28;20033;-65
2022/09/02 08:33:10;;;;;;;8.32;5.97;;;;;;;19.38;100.00;90833.34;5052951;28;20056;-65
2022/09/02 08:35:36;;;;;;;10.23;6.97;;;;;;;19.38;100.00;90834.09;5053089;28;20479;-65
2022/09/02 08:38:02;;;;;;;8.27;6.20;;;;;;;19.41;100.00;90828.00;5051615;28;20543;-65
2022/09/02 08:40:40;;;;;;;9.20;6.07;;;;;;;19.39;100.00;90832.19;5053088;28;20033;-66
2022/09/02 08:43:38;;;;;;;14.25;8.20;;;;;;;19.37;100.00;90837.94;5052732;28;20029;-65
2022/09/02 08:46:10;;;;;;;10.93;7.32;;;;;;;19.32;100.00;90832.88;5048450;28;20447;-66
2022/09/02 08:48:51;;;;;;;11.85;8.18;;;;;;;19.39;100.00;90824.09;5067007;28;20029;-66
2022/09/02 08:51:30;;;;;;;13.25;7.63;;;;;;;19.36;100.00;90814.81;5024259;28;20033;-64
2022/09/02 08:54:02;;;;;;;12.35;8.50;;;;;;;19.71;100.00;90822.63;5032207;28;20020;-65
2022/09/02 08:56:28;;;;;;;16.25;8.57;;;;;;;20.06;100.00;90818.81;5072396;28;20032;-65
2022/09/02 08:59:00;;;;;;;13.23;8.20;;;;;;;20.20;100.00;90821.69;5062556;28;20028;-65
2022/09/02 09:01:40;;;;;;;13.13;8.40;;;;;;;20.49;100.00;90820.06;5064578;28;20047;-63
2022/09/02 09:04:20;;;;;;;14.80;8.30;;;;;;;20.60;100.00;90820.94;5072524;28;20024;-64
2022/09/02 09:07:05;;;;;;;13.68;9.18;;;;;;;20.90;100.00;90822.75;5068494;28;20029;-65
2022/09/02 09:09:55;;;;;;;17.88;9.32;;;;;;;21.39;100.00;90813.47;5052440;28;20021;-67
2022/09/02 09:12:39;;;;;;;17.30;10.13;;;;;;;21.66;100.00;90805.91;5035418;28;20401;-67
2022/09/02 09:15:10;;;;;;;18.88;10.90;;;;;;;22.03;100.00;90805.66;5049991;28;20025;-65
2022/09/02 09:17:56;;;;;;;14.15;9.38;;;;;;;22.31;100.00;90802.31;5049526;28;20033;-68
2022/09/02 09:20:32;;;;;;;16.42;10.93;;;;;;;22.77;100.00;90807.81;5047512;28;20108;-64
2022/09/02 09:23:00;;;;;;;17.77;10.82;;;;;;;22.33;100.00;90806.19;5048471;28;20736;-67
2022/09/02 09:25:30;;;;;;;19.58;10.73;;;;;;;22.88;100.00;90797.78;5059188;28;20024;-65
2022/09/02 09:28:00;;;;;;;16.70;10.93;;;;;;;23.04;100.00;90796.59;5055016;28;20111;-63
2022/09/02 09:30:27;;;;;;;16.20;10.50;;;;;;;23.38;100.00;90803.19;5053852;28;20362;-64
2022/09/02 09:32:56;;;;;;;18.73;11.63;;;;;;;23.34;100.00;90798.91;5051138;28;20495;-64
2022/09/02 09:35:23;;;;;;;22.27;12.00;;;;;;;22.80;100.00;90795.41;5051074;28;20032;-62
2022/09/02 09:37:53;;;;;;;19.33;11.07;;;;;;;23.09;100.00;90794.31;5051299;28;20044;-63
2022/09/02 09:40:21;;;;;;;16.25;9.48;;;;;;;23.45;100.00;90784.16;5051566;28;20083;-64
2022/09/02 09:42:59;;;;;;;18.88;11.63;;;;;;;24.52;100.00;90775.66;5056372;28;20493;-62
2022/09/02 09:45:36;;;;;;;16.00;11.27;;;;;;;29.70;81.67;90783.84;5067915;28;20127;-65
2022/09/02 09:48:17;;;;;;;14.80;8.65;;;;;;;30.18;69.67;90772.03;5071104;28;20029;-65
2022/09/02 09:50:44;;;;;;;14.48;10.52;;;;;;;30.27;65.42;90780.38;5071479;28;20036;-65
2022/09/02 09:53:27;;;;;;;17.70;9.98;;;;;;;29.22;71.00;90785.38;5070967;28;20573;-65
2022/09/02 09:56:06;;;;;;;;;;;;;;;28.93;69.04;90786.03;5071614;28;20494;-65
2022/09/02 09:58:40;;;;;;;16.42;10.70;;;;;;;27.71;74.09;90789.56;5071219;28;20230;-65
2022/09/02 10:01:24;;;;;;;15.27;10.50;;;;;;;27.61;76.28;90782.28;5070898;28;20040;-65
2022/09/02 10:04:08;;;;;;;14.27;9.05;;;;;;;29.04;69.62;90782.28;5071052;28;20032;-65
2022/09/02 10:06:40;;;;;;;15.25;10.80;;;;;;;29.27;66.53;90770.38;5070833;28;20485;-64
2022/09/02 10:09:29;;;;;;;13.20;9.63;;;;;;;33.64;53.98;90775.06;5070670;28;20119;-64
2022/09/02 10:11:58;;;;;;;13.77;10.07;;;;;;;32.75;52.66;90783.94;5070998;28;20041;-66
2022/09/02 10:14:32;;;;;;;17.33;10.75;;;;;;;32.80;52.47;90788.84;5070981;28;20048;-65
2022/09/02 10:17:15;;;;;;;15.63;10.18;;;;;;;33.28;52.71;90792.97;5070645;28;20021;-66
2022/09/02 10:19:51;;;;;;;14.55;10.00;;;;;;;33.43;52.47;90795.97;5070881;28;20033;-66
2022/09/02 10:23:04;;;;;;;14.10;10.43;;;;;;;31.31;53.02;90796.66;5070371;28;20067;-67
2022/09/02 10:25:41;;;;;;;14.45;9.63;;;;;;;31.25;55.87;90785.47;4989449;28;20519;-66
2022/09/02 10:28:25;;;;;;;13.48;10.25;;;;;;;32.28;51.73;90787.59;5060126;28;20032;-66
2022/09/02 10:31:09;;;;;;;14.18;9.93;;;;;;;29.54;58.76;90781.91;5070582;28;20174;-66
2022/09/02 10:33:39;;;;;;;14.07;9.95;;;;;;;28.05;62.22;90788.56;5070780;28;20514;-67
2022/09/02 10:36:27;;;;;;;15.60;9.40;;;;;;;27.85;63.71;90798.72;5070885;28;20636;-66
2022/09/02 10:38:52;;;;;;;15.90;9.88;;;;;;;27.11;67.11;90799.50;5070341;28;20024;-66
2022/09/02 10:41:33;;;;;;;12.88;8.40;;;;;;;27.24;69.60;90796.97;5070591;28;20126;-66
2022/09/02 10:44:23;;;;;;;17.25;8.82;;;;;;;27.80;65.68;90799.22;5070663;28;20029;-66
2022/09/02 10:47:03;;;;;;;14.35;8.38;;;;;;;27.61;65.08;90803.38;5070549;28;20031;-68
2022/09/02 10:49:53;;;;;;;12.65;8.55;;;;;;;27.79;66.02;90795.69;5070503;28;20087;-66
2022/09/02 10:52:48;;;;;;;12.57;8.68;;;;;;;27.55;69.44;90789.44;5070210;28;20032;-66
2022/09/02 10:55:37;;;;;;;11.32;8.43;;;;;;;27.73;66.77;90795.41;5048317;28;20449;-66
2022/09/02 10:58:26;;;;;;;12.57;7.88;;;;;;;28.54;63.89;90783.31;5070786;28;20444;-66
2022/09/02 11:00:55;;;;;;;9.02;6.68;;;;;;;28.32;61.97;90785.72;5031126;28;20501;-65
2022/09/02 11:03:53;;;;;;;9.52;6.82;;;;;;;27.30;63.63;90789.06;5074454;28;20032;-65
2022/09/02 11:06:23;;;;;;;14.80;8.07;;;;;;;26.38;73.09;90778.31;5074317;28;20456;-66
2022/09/02 11:09:12;;;;;;;18.23;7.53;;;;;;;25.81;80.42;90780.88;5074040;28;20040;-65
2022/09/02 11:11:51;;;;;;;10.98;7.30;;;;;;;25.08;84.54;90784.63;5074133;28;20021;-66
2022/09/02 11:14:47;;;;;;;13.30;8.05;;;;;;;24.74;96.32;90776.31;5074044;28;20033;-66
2022/09/02 11:17:23;;;;;;;10.68;7.50;;;;;;;24.87;98.96;90771.94;5046460;28;20092;-66
2022/09/02 11:20:02;;;;;;;10.32;7.25;;;;;;;24.96;91.30;90780.44;5034101;28;20044;-66
2022/09/02 11:22:55;;;;;;;12.15;7.20;;;;;;;26.98;86.45;90776.66;5026894;28;20486;-65
2022/09/02 11:25:25;;;;;;;7.15;6.13;;;;;;;28.92;69.24;90770.78;5034333;28;20033;-66
2022/09/02 11:27:56;;;;;;;7.40;5.60;;;;;;;28.91;64.10;90771.22;5034149;28;20401;-66
2022/09/02 11:30:45;;;;;;;10.15;6.93;;;;;;;28.14;67.66;90771.63;5033856;28;20030;-66
2022/09/02 11:33:27;;;;;;;10.43;7.55;;;;;;;27.64;74.17;90775.28;5033156;28;20124;-66